EmailTwitter


Observations de surface / Québec / LFBP

Régions: Québec | Canada | États-Unis | Europe | France | UK | Elsewhere
Station
Affichage
Infos & localisation pour LFBP | Aide pour décoder les METARs

Observations prises le 2017-02-23 à 04H30 UTC à PONT-LONG-UZEIN/, FR (LFBP)

Température: 4.0 Celsius

Point de rosée: 2.0 Celsius

Humidité relative: 87%

Vents: Sud-est à 6 km/h ou 3 noeuds.

Pression au niveau moyen de la mer: 101.50 kilopascals.

Observation METAR:

LFBP 230430Z AUTO 14003KT CAVOK 04/02 Q1015 NOSIG=